sensor_id;sensor_type;location;lat;lon;timestamp;pressure;altitude;pressure_sealevel;temperature;humidity
70902;BME280;58548;47.210;8.618;2023-02-18T00:01:50;95291.16;;;16.63;35.34
70902;BME280;58548;47.210;8.618;2023-02-18T00:04:15;95307.41;;;16.66;35.04
70902;BME280;58548;47.210;8.618;2023-02-18T00:06:41;95322.25;;;16.87;35.32
70902;BME280;58548;47.210;8.618;2023-02-18T00:09:07;95317.44;;;16.91;35.11
70902;BME280;58548;47.210;8.618;2023-02-18T00:11:35;95313.97;;;16.91;35.18
70902;BME280;58548;47.210;8.618;2023-02-18T00:14:04;95266.38;;;16.57;34.91
70902;BME280;58548;47.210;8.618;2023-02-18T00:16:33;95314.78;;;16.91;34.89
70902;BME280;58548;47.210;8.618;2023-02-18T00:19:05;95197.91;;;16.15;34.63
70902;BME280;58548;47.210;8.618;2023-02-18T00:21:34;95213.56;;;16.30;34.78
70902;BME280;58548;47.210;8.618;2023-02-18T00:24:01;95314.84;;;17.05;35.03
70902;BME280;58548;47.210;8.618;2023-02-18T00:26:27;95244.88;;;16.53;35.05
70902;BME280;58548;47.210;8.618;2023-02-18T00:28:56;95323.16;;;17.08;34.68
70902;BME280;58548;47.210;8.618;2023-02-18T00:31:28;95319.50;;;17.09;34.63
70902;BME280;58548;47.210;8.618;2023-02-18T00:33:58;95315.69;;;17.12;34.63
70902;BME280;58548;47.210;8.618;2023-02-18T00:36:27;95320.97;;;17.12;34.73
70902;BME280;58548;47.210;8.618;2023-02-18T00:38:57;95313.66;;;17.14;34.79
70902;BME280;58548;47.210;8.618;2023-02-18T00:41:27;95315.28;;;17.15;34.79
70902;BME280;58548;47.210;8.618;2023-02-18T00:43:55;95290.47;;;17.02;35.21
70902;BME280;58548;47.210;8.618;2023-02-18T00:46:27;95231.13;;;16.71;35.18
70902;BME280;58548;47.210;8.618;2023-02-18T00:48:54;95200.44;;;16.50;34.82
70902;BME280;58548;47.210;8.618;2023-02-18T00:51:21;95309.78;;;17.23;34.71
70902;BME280;58548;47.210;8.618;2023-02-18T00:53:48;95223.41;;;16.63;35.09
70902;BME280;58548;47.210;8.618;2023-02-18T00:56:19;95285.81;;;17.05;34.38
70902;BME280;58548;47.210;8.618;2023-02-18T00:58:45;95232.31;;;16.69;34.60
70902;BME280;58548;47.210;8.618;2023-02-18T01:01:11;95199.81;;;16.55;34.63
70902;BME280;58548;47.210;8.618;2023-02-18T01:03:42;95310.81;;;17.22;34.46
70902;BME280;58548;47.210;8.618;2023-02-18T01:06:09;95211.84;;;16.64;34.76
70902;BME280;58548;47.210;8.618;2023-02-18T01:08:37;95311.63;;;17.29;34.54
70902;BME280;58548;47.210;8.618;2023-02-18T01:11:11;95318.53;;;17.30;34.35
70902;BME280;58548;47.210;8.618;2023-02-18T01:13:38;95237.22;;;16.85;34.33
70902;BME280;58548;47.210;8.618;2023-02-18T01:16:07;95207.19;;;16.66;33.98
70902;BME280;58548;47.210;8.618;2023-02-18T01:18:34;95303.91;;;17.28;34.58
70902;BME280;58548;47.210;8.618;2023-02-18T01:21:00;95215.72;;;16.75;34.87
70902;BME280;58548;47.210;8.618;2023-02-18T01:23:32;95316.13;;;17.36;34.48
70902;BME280;58548;47.210;8.618;2023-02-18T01:25:57;95307.38;;;17.35;34.24
70902;BME280;58548;47.210;8.618;2023-02-18T01:28:26;95295.59;;;17.38;34.91
70902;BME280;58548;47.210;8.618;2023-02-18T01:30:54;95111.34;;;16.19;34.38
70902;BME280;58548;47.210;8.618;2023-02-18T01:33:25;95266.75;;;17.23;34.11
70902;BME280;58548;47.210;8.618;2023-02-18T01:35:54;95202.75;;;16.87;34.26
70902;BME280;58548;47.210;8.618;2023-02-18T01:38:19;95289.72;;;17.49;34.63
70902;BME280;58548;47.210;8.618;2023-02-18T01:40:50;95177.16;;;16.81;34.46
70902;BME280;58548;47.210;8.618;2023-02-18T01:43:22;95159.69;;;16.73;34.70
70902;BME280;58548;47.210;8.618;2023-02-18T01:46:12;95176.34;;;16.87;34.52
70902;BME280;58548;47.210;8.618;2023-02-18T01:49:01;95187.94;;;16.99;33.73
70902;BME280;58548;47.210;8.618;2023-02-18T01:51:33;95159.53;;;16.81;34.08
70902;BME280;58548;47.210;8.618;2023-02-18T01:59:16;95174.16;;;16.97;34.12
70902;BME280;58548;47.210;8.618;2023-02-18T02:01:46;95265.75;;;17.57;34.52
70902;BME280;58548;47.210;8.618;2023-02-18T02:04:12;95246.63;;;17.42;34.07
70902;BME280;58548;47.210;8.618;2023-02-18T02:06:38;95168.25;;;16.95;34.13
70902;BME280;58548;47.210;8.618;2023-02-18T02:09:09;95263.09;;;17.44;34.30
70902;BME280;58548;47.210;8.618;2023-02-18T02:14:52;95252.75;;;17.42;35.03
70902;BME280;58548;47.210;8.618;2023-02-18T02:36:22;95245.81;;;17.14;35.50
70902;BME280;58548;47.210;8.618;2023-02-18T02:45:05;95254.31;;;16.96;35.19
70902;BME280;58548;47.210;8.618;2023-02-18T02:53:29;95236.81;;;16.82;35.65
70902;BME280;58548;47.210;8.618;2023-02-18T02:55:55;95157.19;;;16.31;35.83
70902;BME280;58548;47.210;8.618;2023-02-18T02:58:27;95222.00;;;16.74;35.56
70902;BME280;58548;47.210;8.618;2023-02-18T03:06:26;95222.16;;;16.59;36.27
70902;BME280;58548;47.210;8.618;2023-02-18T03:09:22;95216.47;;;16.55;36.23
70902;BME280;58548;47.210;8.618;2023-02-18T03:20:38;95129.50;;;15.87;36.78
70902;BME280;58548;47.210;8.618;2023-02-18T03:23:16;95141.88;;;16.00;36.60
70902;BME280;58548;47.210;8.618;2023-02-18T03:25:49;95026.72;;;15.25;36.58
70902;BME280;58548;47.210;8.618;2023-02-18T03:28:22;95195.94;;;16.37;36.32
70902;BME280;58548;47.210;8.618;2023-02-18T03:30:52;95202.00;;;16.31;36.48
70902;BME280;58548;47.210;8.618;2023-02-18T03:33:26;95197.53;;;16.25;36.43
70902;BME280;58548;47.210;8.618;2023-02-18T03:35:56;95214.34;;;16.17;36.65
70902;BME280;58548;47.210;8.618;2023-02-18T03:38:34;95204.56;;;16.11;36.79
70902;BME280;58548;47.210;8.618;2023-02-18T03:41:05;95191.28;;;15.91;36.63
70902;BME280;58548;47.210;8.618;2023-02-18T03:43:33;95103.88;;;15.32;36.40
70902;BME280;58548;47.210;8.618;2023-02-18T03:46:00;95212.22;;;15.99;37.05
70902;BME280;58548;47.210;8.618;2023-02-18T03:48:31;95193.06;;;15.83;36.94
70902;BME280;58548;47.210;8.618;2023-02-18T03:50:57;95205.69;;;15.95;37.11
70902;BME280;58548;47.210;8.618;2023-02-18T03:53:25;95190.59;;;15.82;36.89
70902;BME280;58548;47.210;8.618;2023-02-18T03:55:53;95187.78;;;15.83;37.15
70902;BME280;58548;47.210;8.618;2023-02-18T03:58:24;95136.22;;;15.61;36.99
70902;BME280;58548;47.210;8.618;2023-02-18T04:00:52;95077.75;;;15.30;36.85
70902;BME280;58548;47.210;8.618;2023-02-18T04:03:25;95085.06;;;15.35;36.82
70902;BME280;58548;47.210;8.618;2023-02-18T04:05:51;95216.13;;;16.17;36.87
70902;BME280;58548;47.210;8.618;2023-02-18T04:08:16;95114.69;;;15.50;37.10
70902;BME280;58548;47.210;8.618;2023-02-18T04:10:45;95228.94;;;16.20;36.73
70902;BME280;58548;47.210;8.618;2023-02-18T04:13:13;95108.81;;;15.48;37.11
70902;BME280;58548;47.210;8.618;2023-02-18T04:15:39;95229.16;;;16.25;36.88
70902;BME280;58548;47.210;8.618;2023-02-18T04:18:05;95223.88;;;16.25;37.28
70902;BME280;58548;47.210;8.618;2023-02-18T04:20:31;95222.50;;;16.29;36.46
70902;BME280;58548;47.210;8.618;2023-02-18T04:22:57;95125.34;;;15.77;36.51
70902;BME280;58548;47.210;8.618;2023-02-18T04:25:22;95218.47;;;16.40;36.74
70902;BME280;58548;47.210;8.618;2023-02-18T04:27:53;95221.69;;;16.42;36.28
70902;BME280;58548;47.210;8.618;2023-02-18T04:30:19;95222.13;;;16.46;36.68
70902;BME280;58548;47.210;8.618;2023-02-18T04:32:48;95113.81;;;15.78;36.25
70902;BME280;58548;47.210;8.618;2023-02-18T04:35:16;95136.78;;;15.91;36.19
70902;BME280;58548;47.210;8.618;2023-02-18T04:37:44;95137.22;;;15.95;36.22
70902;BME280;58548;47.210;8.618;2023-02-18T04:40:11;95127.47;;;15.89;36.25
70902;BME280;58548;47.210;8.618;2023-02-18T04:42:40;95219.09;;;16.49;36.18
70902;BME280;58548;47.210;8.618;2023-02-18T04:45:06;95224.56;;;16.54;36.28
70902;BME280;58548;47.210;8.618;2023-02-18T04:47:35;95145.34;;;16.07;36.18
70902;BME280;58548;47.210;8.618;2023-02-18T04:50:00;95209.56;;;16.48;35.88
70902;BME280;58548;47.210;8.618;2023-02-18T04:52:26;95129.13;;;15.96;36.37
70902;BME280;58548;47.210;8.618;2023-02-18T04:54:54;95214.63;;;16.56;35.82
70902;BME280;58548;47.210;8.618;2023-02-18T04:57:20;95210.19;;;16.56;36.14
70902;BME280;58548;47.210;8.618;2023-02-18T04:59:49;95198.81;;;16.56;35.83
70902;BME280;58548;47.210;8.618;2023-02-18T05:02:15;95104.78;;;15.88;35.71
70902;BME280;58548;47.210;8.618;2023-02-18T05:04:40;95199.03;;;16.48;35.32
70902;BME280;58548;47.210;8.618;2023-02-18T05:07:06;95199.19;;;16.39;35.55
70902;BME280;58548;47.210;8.618;2023-02-18T05:09:32;95199.34;;;16.31;35.57
70902;BME280;58548;47.210;8.618;2023-02-18T05:12:00;95198.53;;;16.17;35.83
70902;BME280;58548;47.210;8.618;2023-02-18T05:14:28;95199.69;;;16.15;35.94
70902;BME280;58548;47.210;8.618;2023-02-18T05:16:54;95202.91;;;16.03;36.02
70902;BME280;58548;47.210;8.618;2023-02-18T05:19:22;95095.34;;;15.30;36.39
70902;BME280;58548;47.210;8.618;2023-02-18T05:21:50;95014.59;;;14.67;36.19
70902;BME280;58548;47.210;8.618;2023-02-18T05:24:16;95182.69;;;15.75;36.22
70902;BME280;58548;47.210;8.618;2023-02-18T05:26:42;95092.78;;;15.08;36.16
70902;BME280;58548;47.210;8.618;2023-02-18T05:29:13;95194.94;;;15.61;36.44
70902;BME280;58548;47.210;8.618;2023-02-18T05:31:38;95173.97;;;15.40;36.40
70902;BME280;58548;47.210;8.618;2023-02-18T05:34:07;95096.25;;;14.80;36.39
70902;BME280;58548;47.210;8.618;2023-02-18T05:36:33;95081.72;;;14.62;36.69
70902;BME280;58548;47.210;8.618;2023-02-18T05:39:01;95060.97;;;14.46;36.61
70902;BME280;58548;47.210;8.618;2023-02-18T05:41:26;95195.50;;;15.21;36.94
70902;BME280;58548;47.210;8.618;2023-02-18T05:43:55;95193.84;;;15.14;36.69
70902;BME280;58548;47.210;8.618;2023-02-18T05:46:41;95193.13;;;15.05;36.76
70902;BME280;58548;47.210;8.618;2023-02-18T05:49:10;95109.03;;;14.40;37.30
70902;BME280;58548;47.210;8.618;2023-02-18T05:51:36;95207.06;;;14.99;36.81
70902;BME280;58548;47.210;8.618;2023-02-18T05:54:03;95201.81;;;14.99;37.33
70902;BME280;58548;47.210;8.618;2023-02-18T05:56:31;95184.88;;;14.86;37.62
70902;BME280;58548;47.210;8.618;2023-02-18T05:58:59;95209.50;;;15.00;37.36
70902;BME280;58548;47.210;8.618;2023-02-18T06:01:28;95178.88;;;14.92;37.71
70902;BME280;58548;47.210;8.618;2023-02-18T06:03:56;95191.09;;;15.00;37.68
70902;BME280;58548;47.210;8.618;2023-02-18T06:06:22;95186.88;;;15.06;37.64
70902;BME280;58548;47.210;8.618;2023-02-18T06:08:51;95069.00;;;14.38;37.83
70902;BME280;58548;47.210;8.618;2023-02-18T06:11:19;95138.19;;;14.88;37.47
70902;BME280;58548;47.210;8.618;2023-02-18T06:13:45;95195.50;;;15.21;37.67
70902;BME280;58548;47.210;8.618;2023-02-18T06:16:11;95187.78;;;15.20;37.50
70902;BME280;58548;47.210;8.618;2023-02-18T06:18:39;95152.63;;;14.99;37.55
70902;BME280;58548;47.210;8.618;2023-02-18T06:21:10;95137.81;;;14.91;37.39
70902;BME280;58548;47.210;8.618;2023-02-18T06:23:38;95175.59;;;15.12;37.57
70902;BME280;58548;47.210;8.618;2023-02-18T06:26:09;95189.78;;;15.18;37.50
70902;BME280;58548;47.210;8.618;2023-02-18T06:28:37;95162.78;;;15.02;37.72
70902;BME280;58548;47.210;8.618;2023-02-18T06:31:06;95187.25;;;15.25;37.68
70902;BME280;58548;47.210;8.618;2023-02-18T06:33:32;95161.44;;;15.13;37.76
70902;BME280;58548;47.210;8.618;2023-02-18T06:36:04;95103.91;;;14.75;37.55
70902;BME280;58548;47.210;8.618;2023-02-18T06:38:34;95205.38;;;15.41;37.47
70902;BME280;58548;47.210;8.618;2023-02-18T06:41:01;95196.22;;;15.37;37.45
70902;BME280;58548;47.210;8.618;2023-02-18T06:43:31;95201.56;;;15.50;37.45
70902;BME280;58548;47.210;8.618;2023-02-18T06:46:00;95149.56;;;15.24;37.38
70902;BME280;58548;47.210;8.618;2023-02-18T06:48:29;95192.75;;;15.65;37.28
70902;BME280;58548;47.210;8.618;2023-02-18T06:50:55;95194.81;;;15.70;37.10
70902;BME280;58548;47.210;8.618;2023-02-18T06:53:25;95163.31;;;15.55;37.12
70902;BME280;58548;47.210;8.618;2023-02-18T06:55:55;95163.16;;;15.56;36.70
70902;BME280;58548;47.210;8.618;2023-02-18T06:58:24;95190.56;;;15.75;37.02
70902;BME280;58548;47.210;8.618;2023-02-18T07:00:52;95054.25;;;14.93;36.74
70902;BME280;58548;47.210;8.618;2023-02-18T07:03:20;95073.75;;;15.06;36.92
70902;BME280;58548;47.210;8.618;2023-02-18T07:05:51;95189.06;;;15.88;36.89
70902;BME280;58548;47.210;8.618;2023-02-18T07:08:17;95161.44;;;15.77;37.06
70902;BME280;58548;47.210;8.618;2023-02-18T07:10:46;95184.84;;;16.00;36.88
70902;BME280;58548;47.210;8.618;2023-02-18T07:13:13;95158.66;;;15.92;36.94
70902;BME280;58548;47.210;8.618;2023-02-18T07:15:41;95189.22;;;16.28;37.03
70902;BME280;58548;47.210;8.618;2023-02-18T07:18:09;95196.41;;;16.61;36.56
70902;BME280;58548;47.210;8.618;2023-02-18T07:20:37;95191.81;;;17.03;36.17
70902;BME280;58548;47.210;8.618;2023-02-18T07:23:03;95163.56;;;17.38;35.52
70902;BME280;58548;47.210;8.618;2023-02-18T07:25:32;95164.84;;;17.94;34.88
70902;BME280;58548;47.210;8.618;2023-02-18T07:28:00;95102.03;;;18.10;34.51
70902;BME280;58548;47.210;8.618;2023-02-18T07:30:28;95096.16;;;18.65;34.28
70902;BME280;58548;47.210;8.618;2023-02-18T07:32:54;95207.09;;;19.93;32.64
70902;BME280;58548;47.210;8.618;2023-02-18T07:35:20;95174.41;;;20.48;31.69
70902;BME280;58548;47.210;8.618;2023-02-18T07:37:52;95154.66;;;21.05;30.76
70902;BME280;58548;47.210;8.618;2023-02-18T07:40:22;95164.13;;;21.73;30.14
70902;BME280;58548;47.210;8.618;2023-02-18T07:42:48;95197.97;;;22.54;28.89
70902;BME280;58548;47.210;8.618;2023-02-18T07:45:21;95166.66;;;22.90;28.00
70902;BME280;58548;47.210;8.618;2023-02-18T07:47:49;95177.84;;;23.38;27.23
70902;BME280;58548;47.210;8.618;2023-02-18T07:50:15;95096.41;;;23.30;26.11
70902;BME280;58548;47.210;8.618;2023-02-18T07:52:46;95144.44;;;23.92;25.53
70902;BME280;58548;47.210;8.618;2023-02-18T07:55:14;95096.84;;;23.84;25.13
70902;BME280;58548;47.210;8.618;2023-02-18T07:57:40;95178.97;;;24.43;25.26
70902;BME280;58548;47.210;8.618;2023-02-18T08:00:24;95186.38;;;24.36;24.71
70902;BME280;58548;47.210;8.618;2023-02-18T08:02:54;95120.84;;;23.84;24.89
70902;BME280;58548;47.210;8.618;2023-02-18T08:05:23;95138.72;;;23.83;24.91
70902;BME280;58548;47.210;8.618;2023-02-18T08:07:49;95153.03;;;23.77;25.00
70902;BME280;58548;47.210;8.618;2023-02-18T08:10:17;95199.66;;;23.91;25.05
70902;BME280;58548;47.210;8.618;2023-02-18T08:12:46;95190.47;;;23.82;25.03
70902;BME280;58548;47.210;8.618;2023-02-18T08:15:13;95112.84;;;23.22;25.16
70902;BME280;58548;47.210;8.618;2023-02-18T08:17:39;95105.97;;;23.09;25.31
70902;BME280;58548;47.210;8.618;2023-02-18T08:20:10;95098.31;;;22.96;25.40
70902;BME280;58548;47.210;8.618;2023-02-18T08:22:36;95175.00;;;23.45;25.36
70902;BME280;58548;47.210;8.618;2023-02-18T08:25:02;95095.97;;;22.99;25.37
70902;BME280;58548;47.210;8.618;2023-02-18T08:27:28;95091.19;;;22.84;25.38
70902;BME280;58548;47.210;8.618;2023-02-18T08:29:57;95193.97;;;23.48;25.45
70902;BME280;58548;47.210;8.618;2023-02-18T08:32:26;95191.97;;;23.56;25.54
70902;BME280;58548;47.210;8.618;2023-02-18T08:34:54;95094.81;;;22.95;25.36
70902;BME280;58548;47.210;8.618;2023-02-18T08:37:20;95195.22;;;23.80;25.53
70902;BME280;58548;47.210;8.618;2023-02-18T08:39:46;95195.38;;;24.30;24.56
70902;BME280;58548;47.210;8.618;2023-02-18T08:42:12;95208.19;;;24.77;24.47
70902;BME280;58548;47.210;8.618;2023-02-18T08:44:38;95115.22;;;24.79;23.64
70902;BME280;58548;47.210;8.618;2023-02-18T08:47:04;95208.09;;;26.08;23.52
70902;BME280;58548;47.210;8.618;2023-02-18T08:49:32;95206.53;;;26.75;22.82
70902;BME280;58548;47.210;8.618;2023-02-18T08:52:02;95199.91;;;27.40;21.82
70902;BME280;58548;47.210;8.618;2023-02-18T08:54:31;95210.56;;;28.12;21.63
70902;BME280;58548;47.210;8.618;2023-02-18T08:56:56;95191.00;;;28.62;20.49
70902;BME280;58548;47.210;8.618;2023-02-18T08:59:23;95130.22;;;28.71;19.94
70902;BME280;58548;47.210;8.618;2023-02-18T09:01:50;95203.81;;;29.60;19.42
70902;BME280;58548;47.210;8.618;2023-02-18T09:04:16;95193.31;;;29.88;19.30
70902;BME280;58548;47.210;8.618;2023-02-18T09:06:42;95173.63;;;30.17;19.00
70902;BME280;58548;47.210;8.618;2023-02-18T09:09:11;95181.41;;;30.43;18.43
70902;BME280;58548;47.210;8.618;2023-02-18T09:11:37;95196.97;;;30.90;18.09
70902;BME280;58548;47.210;8.618;2023-02-18T09:14:05;95129.63;;;30.84;17.57
70902;BME280;58548;47.210;8.618;2023-02-18T09:16:31;95057.59;;;30.71;17.23
70902;BME280;58548;47.210;8.618;2023-02-18T09:18:57;95212.41;;;31.88;16.72
70902;BME280;58548;47.210;8.618;2023-02-18T09:21:23;95186.75;;;32.05;17.09
70902;BME280;58548;47.210;8.618;2023-02-18T09:23:52;95140.41;;;32.12;15.98
70902;BME280;58548;47.210;8.618;2023-02-18T09:26:21;95206.84;;;32.69;15.81
70902;BME280;58548;47.210;8.618;2023-02-18T09:28:53;95128.78;;;32.39;16.09
70902;BME280;58548;47.210;8.618;2023-02-18T09:31:23;95188.91;;;32.87;15.89
70902;BME280;58548;47.210;8.618;2023-02-18T09:34:01;95185.53;;;33.04;15.23
70902;BME280;58548;47.210;8.618;2023-02-18T09:36:27;95166.47;;;33.09;15.23
70902;BME280;58548;47.210;8.618;2023-02-18T09:38:55;95183.81;;;33.53;15.22
70902;BME280;58548;47.210;8.618;2023-02-18T09:41:43;95185.94;;;33.65;14.59
70902;BME280;58548;47.210;8.618;2023-02-18T09:49:46;95188.78;;;32.92;15.31
70902;BME280;58548;47.210;8.618;2023-02-18T09:52:21;95179.56;;;32.79;15.53
70902;BME280;58548;47.210;8.618;2023-02-18T09:54:49;95101.59;;;31.94;15.38
70902;BME280;58548;47.210;8.618;2023-02-18T09:57:42;95181.53;;;32.23;15.68
70902;BME280;58548;47.210;8.618;2023-02-18T10:00:22;95088.53;;;31.26;15.33
70902;BME280;58548;47.210;8.618;2023-02-18T10:02:57;95098.28;;;30.89;16.11
70902;BME280;58548;47.210;8.618;2023-02-18T10:05:26;95189.25;;;31.21;16.51
70902;BME280;58548;47.210;8.618;2023-02-18T10:08:02;95191.16;;;30.82;16.43
70902;BME280;58548;47.210;8.618;2023-02-18T10:10:46;95119.13;;;30.26;16.80
70902;BME280;58548;47.210;8.618;2023-02-18T10:13:18;95183.34;;;30.62;16.96
70902;BME280;58548;47.210;8.618;2023-02-18T10:15:49;95171.25;;;30.78;17.26
70902;BME280;58548;47.210;8.618;2023-02-18T10:20:56;95158.56;;;31.17;17.00
70902;BME280;58548;47.210;8.618;2023-02-18T10:23:23;95173.50;;;31.42;16.93
70902;BME280;58548;47.210;8.618;2023-02-18T10:25:51;95097.16;;;31.09;16.35
70902;BME280;58548;47.210;8.618;2023-02-18T10:28:21;95106.31;;;31.27;16.85
70902;BME280;58548;47.210;8.618;2023-02-18T10:31:02;95151.53;;;31.96;16.47
70902;BME280;58548;47.210;8.618;2023-02-18T10:33:35;95174.66;;;32.30;16.19
70902;BME280;58548;47.210;8.618;2023-02-18T10:36:39;95079.56;;;32.14;16.24
70902;BME280;58548;47.210;8.618;2023-02-18T10:39:32;95166.22;;;33.19;15.58
70902;BME280;58548;47.210;8.618;2023-02-18T10:52:26;95157.31;;;33.73;14.97
70902;BME280;58548;47.210;8.618;2023-02-18T10:57:23;95170.22;;;33.76;15.17
70902;BME280;58548;47.210;8.618;2023-02-18T11:00:32;95086.06;;;33.32;14.85
70902;BME280;58548;47.210;8.618;2023-02-18T11:03:15;95167.88;;;34.15;15.31
70902;BME280;58548;47.210;8.618;2023-02-18T11:05:45;95132.81;;;34.36;14.75
70902;BME280;58548;47.210;8.618;2023-02-18T11:08:20;95153.97;;;34.92;14.04
70902;BME280;58548;47.210;8.618;2023-02-18T11:10:48;95162.25;;;35.22;14.23
70902;BME280;58548;47.210;8.618;2023-02-18T11:13:23;95152.72;;;35.16;13.01
70902;BME280;58548;47.210;8.618;2023-02-18T11:16:01;95146.47;;;34.89;13.78
70902;BME280;58548;47.210;8.618;2023-02-18T11:21:19;95162.16;;;34.25;14.46
70902;BME280;58548;47.210;8.618;2023-02-18T11:23:53;95160.34;;;34.03;14.86
70902;BME280;58548;47.210;8.618;2023-02-18T11:26:39;95093.97;;;33.29;14.53
70902;BME280;58548;47.210;8.618;2023-02-18T11:29:35;95138.06;;;33.43;15.20
70902;BME280;58548;47.210;8.618;2023-02-18T11:32:03;95121.22;;;33.01;15.03
70902;BME280;58548;47.210;8.618;2023-02-18T11:34:35;95087.97;;;32.63;15.87
70902;BME280;58548;47.210;8.618;2023-02-18T11:37:12;95064.25;;;32.10;15.71
70902;BME280;58548;47.210;8.618;2023-02-18T11:39:50;95123.38;;;32.25;15.92
70902;BME280;58548;47.210;8.618;2023-02-18T11:42:27;95122.41;;;31.93;16.61
70902;BME280;58548;47.210;8.618;2023-02-18T11:44:56;95032.56;;;31.46;16.70
70902;BME280;58548;47.210;8.618;2023-02-18T11:47:33;95116.59;;;32.14;16.42
70902;BME280;58548;47.210;8.618;2023-02-18T11:55:19;95095.78;;;32.00;16.41
70902;BME280;58548;47.210;8.618;2023-02-18T11:57:55;95008.13;;;31.09;16.64
70902;BME280;58548;47.210;8.618;2023-02-18T12:00:24;95070.44;;;31.26;17.15
70902;BME280;58548;47.210;8.618;2023-02-18T12:03:08;94976.75;;;30.33;17.30
70902;BME280;58548;47.210;8.618;2023-02-18T12:05:41;95036.41;;;30.45;17.55
70902;BME280;58548;47.210;8.618;2023-02-18T12:08:21;95049.06;;;30.06;18.22
70902;BME280;58548;47.210;8.618;2023-02-18T12:11:08;95019.44;;;29.39;18.33
70902;BME280;58548;47.210;8.618;2023-02-18T12:13:58;95071.53;;;29.72;18.83
70902;BME280;58548;47.210;8.618;2023-02-18T12:27:40;95057.59;;;30.14;17.95
70902;BME280;58548;47.210;8.618;2023-02-18T12:30:29;95029.41;;;30.06;18.35
70902;BME280;58548;47.210;8.618;2023-02-18T12:33:21;95038.47;;;29.91;18.50
70902;BME280;58548;47.210;8.618;2023-02-18T12:36:08;94953.28;;;29.38;18.54
70902;BME280;58548;47.210;8.618;2023-02-18T12:38:54;95034.13;;;29.95;18.59
70902;BME280;58548;47.210;8.618;2023-02-18T12:47:42;95022.63;;;30.66;17.91
70902;BME280;58548;47.210;8.618;2023-02-18T12:55:55;95009.94;;;31.13;17.51
70902;BME280;58548;47.210;8.618;2023-02-18T13:01:27;95009.66;;;31.57;17.09
70902;BME280;58548;47.210;8.618;2023-02-18T13:18:00;94981.09;;;32.66;16.06
70902;BME280;58548;47.210;8.618;2023-02-18T13:20:47;95000.03;;;32.89;15.48
70902;BME280;58548;47.210;8.618;2023-02-18T13:23:23;94902.50;;;32.62;15.99
70902;BME280;58548;47.210;8.618;2023-02-18T13:25:56;94903.97;;;32.69;15.51
70902;BME280;58548;47.210;8.618;2023-02-18T13:40:01;94943.69;;;34.16;15.36
70902;BME280;58548;47.210;8.618;2023-02-18T13:45:04;94962.69;;;34.51;14.07
70902;BME280;58548;47.210;8.618;2023-02-18T13:52:39;94929.50;;;34.19;14.07
70902;BME280;58548;47.210;8.618;2023-02-18T13:55:18;94889.81;;;33.79;14.43
70902;BME280;58548;47.210;8.618;2023-02-18T13:57:53;94874.03;;;33.72;14.18
70902;BME280;58548;47.210;8.618;2023-02-18T14:00:38;94874.66;;;33.51;14.21
70902;BME280;58548;47.210;8.618;2023-02-18T14:05:56;94874.00;;;33.37;14.78
70902;BME280;58548;47.210;8.618;2023-02-18T14:08:33;94927.91;;;33.65;15.25
70902;BME280;58548;47.210;8.618;2023-02-18T14:11:59;94943.19;;;33.78;15.14
70902;BME280;58548;47.210;8.618;2023-02-18T14:27:39;94879.50;;;32.74;15.35
70902;BME280;58548;47.210;8.618;2023-02-18T14:30:19;94855.13;;;32.33;15.51
70902;BME280;58548;47.210;8.618;2023-02-18T14:32:58;94910.91;;;32.29;15.93
70902;BME280;58548;47.210;8.618;2023-02-18T14:35:37;94825.00;;;31.58;16.41
70902;BME280;58548;47.210;8.618;2023-02-18T14:40:50;94912.63;;;31.52;16.43
70902;BME280;58548;47.210;8.618;2023-02-18T14:46:02;94905.75;;;30.90;16.79
70902;BME280;58548;47.210;8.618;2023-02-18T14:51:33;94877.09;;;30.00;17.47
70902;BME280;58548;47.210;8.618;2023-02-18T14:54:14;94903.06;;;29.71;17.97
70902;BME280;58548;47.210;8.618;2023-02-18T14:57:05;94892.22;;;29.57;18.77
70902;BME280;58548;47.210;8.618;2023-02-18T14:59:43;94807.88;;;28.85;18.49
70902;BME280;58548;47.210;8.618;2023-02-18T15:02:25;94800.88;;;28.36;19.20
70902;BME280;58548;47.210;8.618;2023-02-18T15:05:21;94893.06;;;28.85;19.78
70902;BME280;58548;47.210;8.618;2023-02-18T15:08:15;94904.53;;;28.66;20.03
70902;BME280;58548;47.210;8.618;2023-02-18T15:13:30;94899.16;;;28.37;20.22
70902;BME280;58548;47.210;8.618;2023-02-18T15:16:03;94900.97;;;28.12;20.05
70902;BME280;58548;47.210;8.618;2023-02-18T15:18:40;94730.78;;;27.09;20.64
70902;BME280;58548;47.210;8.618;2023-02-18T15:21:15;94804.06;;;27.34;20.54
70902;BME280;58548;47.210;8.618;2023-02-18T15:23:46;94811.94;;;27.20;20.44
70902;BME280;58548;47.210;8.618;2023-02-18T15:26:15;94801.56;;;27.03;20.67
70902;BME280;58548;47.210;8.618;2023-02-18T15:28:58;94889.56;;;27.51;20.92
70902;BME280;58548;47.210;8.618;2023-02-18T15:31:30;94801.16;;;26.80;21.34
70902;BME280;58548;47.210;8.618;2023-02-18T15:34:24;94828.47;;;26.82;21.88
70902;BME280;58548;47.210;8.618;2023-02-18T15:36:59;94891.94;;;26.92;21.79
70902;BME280;58548;47.210;8.618;2023-02-18T15:39:26;94812.25;;;26.32;22.09
70902;BME280;58548;47.210;8.618;2023-02-18T15:41:56;94871.66;;;26.49;22.37
70902;BME280;58548;47.210;8.618;2023-02-18T15:44:28;94885.88;;;26.34;22.63
70902;BME280;58548;47.210;8.618;2023-02-18T15:46:59;94810.41;;;25.65;22.60
70902;BME280;58548;47.210;8.618;2023-02-18T15:49:26;94883.47;;;25.92;22.37
70902;BME280;58548;47.210;8.618;2023-02-18T15:51:57;94885.28;;;25.65;22.98
70902;BME280;58548;47.210;8.618;2023-02-18T15:54:25;94755.59;;;24.52;23.90
70902;BME280;58548;47.210;8.618;2023-02-18T15:57:00;94871.19;;;25.01;23.46
70902;BME280;58548;47.210;8.618;2023-02-18T15:59:30;94869.22;;;24.76;24.06
70902;BME280;58548;47.210;8.618;2023-02-18T16:02:20;94884.34;;;24.65;24.21
70902;BME280;58548;47.210;8.618;2023-02-18T16:05:02;94895.72;;;24.45;25.38
70902;BME280;58548;47.210;8.618;2023-02-18T16:07:47;94772.59;;;23.55;25.26
70902;BME280;58548;47.210;8.618;2023-02-18T16:12:51;94887.81;;;23.90;25.87
70902;BME280;58548;47.210;8.618;2023-02-18T16:15:30;94759.69;;;22.87;26.08